Time;durP1;ratioP1;P1;durP2;ratioP2;P2;SDS_P1;SDS_P2;PMS_P1;PMS_P2;Temp;Humidity;BMP_temperature;BMP_pressure;BME280_temperature;BME280_humidity;BME280_pressure;Samples;Min_cycle;Max_cycle;Signal;HPM_P1;HPM_P2
2023/08/24 00:02:10;;;;;;;6.40;4.90;;;;;;;15.06;93.94;99138.80;137472;1274;22231;-83
2023/08/24 00:05:13;;;;;;;7.80;5.10;;;;;;;15.03;94.37;99137.75;137347;1273;22151;-83
2023/08/24 00:08:15;;;;;;;8.40;4.70;;;;;;;15.01;94.67;99136.89;137465;1274;22215;-83
2023/08/24 00:11:18;;;;;;;25.80;17.50;;;;;;;14.99;96.57;99138.29;137503;1274;22657;-85
2023/08/24 00:14:20;;;;;;;17.70;10.70;;;;;;;15.79;100.00;99134.04;137549;1273;22178;-85
2023/08/24 00:17:24;;;;;;;22.90;12.70;;;;;;;17.08;100.00;99129.16;137289;1274;22610;-87
2023/08/24 00:20:27;;;;;;;12.80;9.70;;;;;;;17.98;100.00;99130.84;137483;1273;22539;-86
2023/08/24 00:23:30;;;;;;;13.80;8.60;;;;;;;18.51;100.00;99132.57;137459;1274;22946;-87
2023/08/24 00:26:32;;;;;;;17.30;10.80;;;;;;;18.88;100.00;99136.04;137480;1274;22290;-87
2023/08/24 00:29:34;;;;;;;582.90;44.30;;;;;;;19.22;100.00;99134.59;137348;1274;22256;-82
2023/08/24 00:32:37;;;;;;;32.80;6.20;;;;;;;19.49;100.00;99136.38;137435;1273;22386;-87
2023/08/24 00:35:40;;;;;;;10.20;4.80;;;;;;;19.76;100.00;99130.39;137366;1274;22327;-86
2023/08/24 00:38:43;;;;;;;11.70;7.80;;;;;;;19.94;100.00;99132.67;137404;1274;22529;-88
2023/08/24 00:41:45;;;;;;;10.70;5.30;;;;;;;20.04;100.00;99131.41;137402;1267;22650;-86
2023/08/24 00:44:50;;;;;;;9.60;4.40;;;;;;;20.11;100.00;99133.55;137425;1274;22207;-86
2023/08/24 00:47:53;;;;;;;31.30;5.40;;;;;;;20.14;100.00;99135.95;137421;1273;22341;-84
2023/08/24 00:50:56;;;;;;;5.30;3.90;;;;;;;20.09;100.00;99136.94;137414;1273;22239;-86
2023/08/24 00:53:58;;;;;;;6.90;6.10;;;;;;;20.07;100.00;99133.63;137522;1273;22422;-86
2023/08/24 00:57:01;;;;;;;10.70;7.70;;;;;;;20.05;100.00;99127.85;137454;1274;22746;-86
2023/08/24 01:00:05;;;;;;;21.80;8.30;;;;;;;20.09;100.00;99134.31;137374;1273;22230;-86
2023/08/24 01:03:08;;;;;;;14.60;5.40;;;;;;;20.12;100.00;99133.53;137411;1273;22802;-86
2023/08/24 01:06:10;;;;;;;9.60;4.50;;;;;;;20.01;100.00;99137.29;137433;1271;22274;-86
2023/08/24 01:09:13;;;;;;;33.00;5.80;;;;;;;19.96;100.00;99138.65;137486;1274;22564;-85
2023/08/24 01:12:16;;;;;;;8.70;4.40;;;;;;;19.94;100.00;99136.90;137482;1273;22488;-86
2023/08/24 01:15:18;;;;;;;16.30;10.10;;;;;;;19.96;100.00;99138.10;137530;1274;22331;-86
2023/08/24 01:18:21;;;;;;;11.20;6.80;;;;;;;19.96;100.00;99141.30;137322;1273;22781;-85
2023/08/24 01:21:26;;;;;;;141.80;12.80;;;;;;;19.90;100.00;99144.73;137120;1274;22385;-80
2023/08/24 01:24:28;;;;;;;15.50;5.20;;;;;;;19.78;100.00;99148.54;137412;1274;22244;-86
2023/08/24 01:27:31;;;;;;;18.80;5.60;;;;;;;19.65;100.00;99148.25;137603;1274;22244;-85
2023/08/24 01:30:34;;;;;;;18.00;4.70;;;;;;;19.63;100.00;99148.48;137611;1274;22134;-86
2023/08/24 01:33:37;;;;;;;48.30;24.30;;;;;;;19.55;100.00;99145.45;137312;1274;23073;-85
2023/08/24 01:36:39;;;;;;;249.00;25.00;;;;;;;19.56;100.00;99143.86;137290;1274;22324;-85
2023/08/24 01:39:42;;;;;;;35.80;17.10;;;;;;;19.61;100.00;99139.86;137571;1273;22240;-85
2023/08/24 01:42:44;;;;;;;20.90;11.70;;;;;;;19.68;100.00;99135.66;137645;1275;22238;-86
2023/08/24 01:45:47;;;;;;;79.80;13.80;;;;;;;19.77;100.00;99133.38;137377;1273;22400;-85
2023/08/24 01:48:49;;;;;;;14.70;5.30;;;;;;;19.84;100.00;99134.80;137399;1273;22181;-86
2023/08/24 01:51:52;;;;;;;8.40;4.40;;;;;;;19.85;100.00;99136.73;137544;1274;22768;-85
2023/08/24 01:54:55;;;;;;;27.40;18.80;;;;;;;19.82;100.00;99132.38;137391;1274;22543;-85
2023/08/24 01:57:58;;;;;;;14.80;8.90;;;;;;;19.78;100.00;99130.00;137302;1273;22265;-85
2023/08/24 02:01:00;;;;;;;12.00;6.00;;;;;;;19.76;100.00;99124.02;137435;1273;22241;-85
2023/08/24 02:04:03;;;;;;;8.80;4.40;;;;;;;19.75;100.00;99120.52;137517;1273;22264;-85
2023/08/24 02:07:05;;;;;;;9.80;5.20;;;;;;;19.71;100.00;99123.77;137393;1273;22198;-85
2023/08/24 02:10:09;;;;;;;6.70;5.00;;;;;;;19.69;100.00;99118.34;137459;1273;22178;-85
2023/08/24 02:13:11;;;;;;;7.30;4.50;;;;;;;19.74;100.00;99114.53;137320;1273;22533;-85
2023/08/24 02:16:14;;;;;;;19.10;5.00;;;;;;;19.77;100.00;99112.36;137479;1274;22207;-85
2023/08/24 02:19:17;;;;;;;7.30;4.20;;;;;;;19.70;100.00;99113.55;137372;1273;22560;-85
2023/08/24 02:22:19;;;;;;;15.00;8.10;;;;;;;19.62;100.00;99111.41;137555;1270;22300;-85
2023/08/24 02:25:22;;;;;;;11.90;7.90;;;;;;;19.61;100.00;99114.27;137388;1274;22308;-85
2023/08/24 02:28:24;;;;;;;14.20;5.60;;;;;;;19.57;100.00;99110.64;137562;1273;22162;-84
2023/08/24 02:31:27;;;;;;;13.70;5.40;;;;;;;19.49;100.00;99110.95;137468;1273;22527;-85
2023/08/24 02:34:29;;;;;;;30.40;20.10;;;;;;;19.48;100.00;99112.92;137578;1273;22391;-85
2023/08/24 02:37:32;;;;;;;42.40;22.90;;;;;;;19.40;100.00;99111.83;137249;1273;22394;-85
2023/08/24 02:40:34;;;;;;;10.80;4.80;;;;;;;19.37;100.00;99112.24;137621;1273;22221;-85
2023/08/24 02:43:38;;;;;;;9.10;4.40;;;;;;;19.36;100.00;99113.50;137628;1273;22306;-84
2023/08/24 02:46:42;;;;;;;7.10;4.10;;;;;;;19.28;100.00;99111.36;137457;1273;22208;-84
2023/08/24 02:49:45;;;;;;;7.30;4.20;;;;;;;19.29;100.00;99110.81;137610;1274;22322;-84
2023/08/24 02:52:47;;;;;;;6.80;4.90;;;;;;;19.34;100.00;99110.35;137481;1270;22222;-85
2023/08/24 02:55:50;;;;;;;8.30;5.50;;;;;;;19.39;100.00;99114.33;137459;1274;22206;-85
2023/08/24 02:58:52;;;;;;;5.20;3.90;;;;;;;19.36;100.00;99114.38;137459;1274;22152;-86
2023/08/24 03:01:55;;;;;;;187.20;17.10;;;;;;;19.21;100.00;99113.60;137315;1273;22387;-87
2023/08/24 03:04:58;;;;;;;603.40;229.40;;;;;;;19.07;100.00;99112.97;137472;1273;22282;-85
2023/08/24 03:08:01;;;;;;;17.90;5.10;;;;;;;19.11;100.00;99112.39;137489;1273;22220;-85
2023/08/24 03:11:05;;;;;;;68.30;9.00;;;;;;;19.12;100.00;99114.14;137400;1273;22234;-83
2023/08/24 03:14:07;;;;;;;45.50;6.60;;;;;;;19.23;100.00;99117.99;137165;1273;22544;-81
2023/08/24 03:17:12;;;;;;;21.90;7.30;;;;;;;19.32;100.00;99117.47;137276;1273;22236;-84
2023/08/24 03:20:15;;;;;;;19.60;10.10;;;;;;;19.28;100.00;99118.07;137519;1274;22512;-85
2023/08/24 03:23:20;;;;;;;42.70;16.80;;;;;;;19.11;100.00;99110.98;137550;1273;22566;-83
2023/08/24 03:26:23;;;;;;;25.90;4.60;;;;;;;19.12;100.00;99107.79;137295;1274;22507;-84
2023/08/24 03:29:26;;;;;;;8.30;4.00;;;;;;;19.10;100.00;99106.77;137487;1273;22395;-85
2023/08/24 03:32:28;;;;;;;7.90;3.90;;;;;;;19.09;100.00;99110.14;137492;1273;22234;-85
2023/08/24 03:35:31;;;;;;;19.70;6.80;;;;;;;18.93;100.00;99113.20;137541;1263;22307;-83
2023/08/24 03:38:34;;;;;;;7.30;3.90;;;;;;;18.77;100.00;99118.06;137475;1273;22229;-85
2023/08/24 03:41:36;;;;;;;9.60;5.10;;;;;;;18.63;100.00;99118.82;137594;1273;22195;-85
2023/08/24 03:44:39;;;;;;;9.80;3.60;;;;;;;18.52;100.00;99119.52;137304;1273;22245;-86
2023/08/24 03:47:43;;;;;;;14.70;4.20;;;;;;;18.40;100.00;99118.98;137451;1273;23013;-84
2023/08/24 03:50:53;;;;;;;15.70;9.00;;;;;;;18.27;100.00;99119.35;137105;1273;22562;-85
2023/08/24 03:53:55;;;;;;;15.30;3.70;;;;;;;18.24;100.00;99118.89;137276;1273;22241;-84
2023/08/24 03:57:01;;;;;;;14.60;9.50;;;;;;;18.25;100.00;99121.68;137230;1273;22537;-86
2023/08/24 04:00:10;;;;;;;4.40;3.90;;;;;;;18.32;100.00;99118.23;137185;1274;22729;-86
2023/08/24 04:03:13;;;;;;;3.20;2.90;;;;;;;18.46;100.00;99123.13;137302;1273;22529;-85
2023/08/24 04:06:16;;;;;;;157.00;12.70;;;;;;;18.57;100.00;99124.19;137372;1273;22202;-85
2023/08/24 04:12:43;;;;;;;13.80;6.80;;;;;;;18.76;100.00;99121.96;137453;1274;22257;-84
2023/08/24 04:15:48;;;;;;;11.00;3.60;;;;;;;18.75;100.00;99123.74;137515;1273;22213;-86
2023/08/24 04:18:52;;;;;;;33.80;4.80;;;;;;;18.73;100.00;99123.79;137295;1273;22239;-84
2023/08/24 04:21:55;;;;;;;5.50;3.50;;;;;;;18.59;100.00;99124.34;137499;1273;22238;-85
2023/08/24 04:24:57;;;;;;;12.70;9.10;;;;;;;18.43;100.00;99123.52;137333;1273;22279;-85
2023/08/24 04:28:00;;;;;;;7.40;4.60;;;;;;;18.51;100.00;99119.69;137462;1273;22708;-85
2023/08/24 04:31:03;;;;;;;5.20;4.10;;;;;;;18.60;100.00;99131.38;137519;1273;22270;-86
2023/08/24 04:34:06;;;;;;;17.20;15.50;;;;;;;18.54;100.00;99128.45;137526;1263;22296;-85
2023/08/24 04:37:15;;;;;;;8.30;4.10;;;;;;;18.53;100.00;99129.19;137265;1267;22531;-86
2023/08/24 04:40:18;;;;;;;36.60;5.40;;;;;;;18.76;100.00;99130.45;137368;1273;22277;-86
2023/08/24 04:43:21;;;;;;;19.60;10.30;;;;;;;18.93;100.00;99132.96;137395;1273;22224;-85
2023/08/24 04:46:23;;;;;;;18.20;11.40;;;;;;;19.13;100.00;99131.58;137503;1266;22204;-85
2023/08/24 04:49:26;;;;;;;151.50;27.50;;;;;;;19.22;100.00;99130.88;137450;1273;22219;-86
2023/08/24 04:52:28;;;;;;;10.00;4.30;;;;;;;19.25;100.00;99126.77;137476;1273;22322;-86
2023/08/24 04:55:31;;;;;;;4.40;2.90;;;;;;;19.45;100.00;99126.57;137505;1260;22300;-86
2023/08/24 04:58:34;;;;;;;4.60;3.20;;;;;;;19.59;100.00;99122.61;137485;1274;22303;-86
2023/08/24 05:01:39;;;;;;;8.00;3.50;;;;;;;19.73;100.00;99121.09;137386;1274;22616;-85
2023/08/24 05:04:41;;;;;;;6.10;2.90;;;;;;;19.85;100.00;99114.66;137482;1274;22378;-84
2023/08/24 05:07:44;;;;;;;397.30;31.60;;;;;;;20.11;100.00;99116.94;137424;1270;22221;-87
2023/08/24 05:10:46;;;;;;;39.70;5.10;;;;;;;20.25;100.00;99116.09;137441;1274;22222;-85
2023/08/24 05:13:49;;;;;;;12.40;3.40;;;;;;;20.34;100.00;99112.17;137416;1273;22243;-84
2023/08/24 05:16:51;;;;;;;249.50;19.20;;;;;;;20.51;100.00;99111.80;137540;1273;22172;-79
2023/08/24 05:19:54;;;;;;;37.80;5.50;;;;;;;20.70;100.00;99111.87;137513;1273;22254;-81
2023/08/24 05:22:56;;;;;;;39.10;6.00;;;;;;;20.86;100.00;99109.01;137442;1273;22893;-81
2023/08/24 05:25:59;;;;;;;29.50;4.50;;;;;;;21.07;100.00;99110.25;137468;1274;22841;-84
2023/08/24 05:29:01;;;;;;;14.30;3.90;;;;;;;21.21;100.00;99113.40;137495;1274;22279;-85
2023/08/24 05:32:04;;;;;;;12.60;3.80;;;;;;;21.40;100.00;99118.05;137501;1273;22993;-85
2023/08/24 05:35:09;;;;;;;26.50;6.00;;;;;;;21.66;100.00;99118.73;137454;1273;22192;-86
2023/08/24 05:38:12;;;;;;;132.20;10.60;;;;;;;21.76;100.00;99123.09;137432;1274;22218;-81
2023/08/24 05:41:14;;;;;;;15.70;4.40;;;;;;;21.59;100.00;99123.38;137520;1266;22311;-86
2023/08/24 05:44:18;;;;;;;43.20;7.10;;;;;;;21.23;100.00;99121.68;137405;1274;22860;-86
2023/08/24 05:47:20;;;;;;;7.70;3.80;;;;;;;21.27;100.00;99121.06;137479;1274;22250;-84
2023/08/24 05:50:23;;;;;;;14.70;5.70;;;;;;;21.27;100.00;99122.11;137289;1274;190923;-84
2023/08/24 05:53:25;;;;;;;784.80;70.00;;;;;;;21.15;100.00;99121.02;137514;1274;22737;-82
2023/08/24 05:56:31;;;;;;;35.10;9.70;;;;;;;20.93;100.00;99124.58;137465;1274;22247;-85
2023/08/24 05:59:37;;;;;;;142.60;17.20;;;;;;;20.98;100.00;99124.27;137508;1274;22258;-84
2023/08/24 06:02:39;;;;;;;21.80;8.70;;;;;;;20.96;100.00;99124.33;137522;1274;22808;-85
2023/08/24 06:05:42;;;;;;;41.30;9.80;;;;;;;21.03;100.00;99121.50;137601;1273;22182;-85
2023/08/24 06:08:44;;;;;;;36.70;9.30;;;;;;;20.97;100.00;99119.34;137538;1273;22280;-85
2023/08/24 06:11:48;;;;;;;35.00;10.00;;;;;;;21.31;100.00;99119.34;137521;1274;22199;-81
2023/08/24 06:14:50;;;;;;;204.10;24.00;;;;;;;21.30;100.00;99115.84;137454;1273;22192;-81
2023/08/24 06:17:53;;;;;;;36.20;11.10;;;;;;;21.32;100.00;99115.63;137232;1274;23164;-83
2023/08/24 06:20:56;;;;;;;77.60;15.40;;;;;;;21.34;100.00;99120.70;137508;1273;22402;-86
2023/08/24 06:23:58;;;;;;;110.10;17.60;;;;;;;21.36;100.00;99124.52;137449;1273;22922;-82
2023/08/24 06:27:01;;;;;;;80.40;15.40;;;;;;;21.44;100.00;99121.84;137468;1273;22278;-85
2023/08/24 06:30:08;;;;;;;46.70;12.00;;;;;;;21.50;100.00;99120.25;137568;1273;22338;-84
2023/08/24 06:33:12;;;;;;;33.80;10.50;;;;;;;21.59;100.00;99115.74;137141;1274;22247;-84
2023/08/24 06:36:15;;;;;;;38.70;11.90;;;;;;;21.81;100.00;99119.40;137212;1251;22584;-84
2023/08/24 06:39:30;;;;;;;29.60;10.00;;;;;;;22.19;100.00;99117.56;137540;1275;22099;-84
2023/08/24 06:42:36;;;;;;;33.80;10.60;;;;;;;22.65;100.00;99115.07;137453;1274;22918;-83
2023/08/24 06:45:40;;;;;;;26.70;9.80;;;;;;;22.78;100.00;99111.98;137506;1274;22840;-85
2023/08/24 06:48:52;;;;;;;73.60;13.00;;;;;;;22.89;100.00;99112.70;137423;1274;22549;-85
2023/08/24 06:52:08;;;;;;;20.80;9.00;;;;;;;23.06;100.00;99117.07;137495;1275;22083;-85
2023/08/24 06:55:11;;;;;;;41.40;10.00;;;;;;;23.19;100.00;99122.13;137245;1274;22296;-85
2023/08/24 06:58:14;;;;;;;27.90;8.50;;;;;;;23.34;100.00;99124.63;137193;1275;22716;-85
2023/08/24 07:01:17;;;;;;;18.00;9.40;;;;;;;23.52;100.00;99128.44;137316;1274;23275;-85
2023/08/24 07:04:22;;;;;;;15.80;8.60;;;;;;;23.61;100.00;99128.14;136746;1270;24237;-85
2023/08/24 07:07:31;;;;;;;18.40;6.80;;;;;;;23.93;70.96;99124.45;137040;1275;22360;-84
2023/08/24 07:10:40;;;;;;;9.20;3.50;;;;;;;24.50;62.68;99125.09;136887;1274;22557;-84
2023/08/24 07:13:44;;;;;;;12.00;4.70;;;;;;;25.04;60.96;99126.29;137151;1275;23069;-84
2023/08/24 07:16:50;;;;;;;18.80;4.40;;;;;;;25.33;57.32;99132.04;137100;1275;22507;-83
2023/08/24 07:19:57;;;;;;;9.50;4.20;;;;;;;25.41;57.53;99129.89;136833;1274;22230;-84
2023/08/24 07:22:59;;;;;;;57.20;7.10;;;;;;;25.73;57.11;99132.08;137353;1274;22678;-84
2023/08/24 07:26:02;;;;;;;15.50;4.00;;;;;;;25.98;56.13;99137.17;137265;1274;22702;-84
2023/08/24 07:29:06;;;;;;;32.00;5.70;;;;;;;26.14;55.98;99132.33;137160;1274;22613;-83
2023/08/24 07:32:11;;;;;;;4.50;3.50;;;;;;;26.33;55.26;99129.66;136974;1274;22526;-85
2023/08/24 07:35:14;;;;;;;12.30;3.40;;;;;;;26.41;55.00;99126.09;137394;1274;23079;-85
2023/08/24 07:38:16;;;;;;;4.00;3.10;;;;;;;26.43;51.54;99124.02;136962;1273;22544;-82
2023/08/24 07:41:19;;;;;;;4.20;3.30;;;;;;;26.04;51.03;99125.47;137534;1274;22221;-83
2023/08/24 07:44:22;;;;;;;4.40;2.80;;;;;;;25.74;50.90;99122.93;137625;1273;22304;-85
2023/08/24 07:47:25;;;;;;;3.70;2.90;;;;;;;25.74;50.32;99120.44;137344;1273;22574;-84
2023/08/24 07:50:28;;;;;;;9.40;2.80;;;;;;;25.97;50.49;99117.80;137253;1273;22516;-82
2023/08/24 07:53:32;;;;;;;8.70;3.00;;;;;;;26.16;51.08;99116.36;137363;1273;22524;-86
2023/08/24 07:56:44;;;;;;;7.90;2.90;;;;;;;26.65;50.28;99111.35;137497;1273;22547;-83
2023/08/24 07:59:57;;;;;;;16.40;3.30;;;;;;;27.09;49.73;99113.29;137234;1273;22548;-83
2023/08/24 08:03:02;;;;;;;13.90;3.00;;;;;;;27.36;47.65;99119.05;137183;1273;22553;-84
2023/08/24 08:06:05;;;;;;;7.00;2.50;;;;;;;27.26;46.25;99116.13;137107;1273;22645;-81
2023/08/24 08:09:08;;;;;;;19.90;3.70;;;;;;;27.19;45.59;99115.11;137216;1273;22513;-83
2023/08/24 08:12:23;;;;;;;4.20;2.70;;;;;;;27.19;46.10;99115.63;137027;1274;22216;-83
2023/08/24 08:15:26;;;;;;;2.90;2.30;;;;;;;27.48;46.59;99110.37;137155;1273;22266;-83
2023/08/24 08:18:29;;;;;;;6.20;2.60;;;;;;;27.71;45.29;99108.09;137437;1273;22110;-84
2023/08/24 08:21:31;;;;;;;7.20;2.40;;;;;;;27.70;42.56;99109.59;137257;1273;22295;-82
2023/08/24 08:24:34;;;;;;;6.20;2.30;;;;;;;27.53;40.71;99109.20;137439;1274;22031;-84
2023/08/24 08:27:36;;;;;;;8.50;3.10;;;;;;;27.16;40.13;99114.88;137532;1273;22201;-82
2023/08/24 08:30:39;;;;;;;9.80;2.40;;;;;;;27.17;44.43;99112.14;137343;1273;22205;-83
2023/08/24 08:33:42;;;;;;;2.90;2.00;;;;;;;27.59;43.39;99114.43;137342;1274;22188;-81
2023/08/24 08:36:45;;;;;;;19.20;3.30;;;;;;;27.68;40.91;99106.08;137308;1273;22392;-83
2023/08/24 08:39:48;;;;;;;;;;;;;;;27.26;39.19;99109.72;137206;1273;22631;-83
2023/08/24 08:42:51;;;;;;;44.80;4.50;;;;;;;27.09;38.45;99109.91;137403;1273;22308;-85
2023/08/24 08:45:53;;;;;;;16.20;3.60;;;;;;;26.90;37.23;99108.17;137507;1270;22451;-84
2023/08/24 08:48:56;;;;;;;16.30;3.30;;;;;;;26.70;35.50;99111.09;137467;1273;22312;-84
2023/08/24 08:51:59;;;;;;;;;;;;;;;26.49;37.70;99113.92;137506;1273;22322;-83
2023/08/24 08:55:06;;;;;;;2.50;1.90;;;;;;;26.65;39.15;99113.30;137508;1273;22265;-83
2023/08/24 08:58:08;;;;;;;10.90;3.00;;;;;;;26.84;39.62;99102.34;137382;1274;22275;-80
2023/08/24 09:01:11;;;;;;;26.80;3.50;;;;;;;27.03;38.19;99101.62;137382;1269;22176;-85
2023/08/24 09:04:14;;;;;;;1048.70;125.90;;;;;;;27.02;37.90;99104.02;137398;1273;22199;-84
2023/08/24 09:07:17;;;;;;;26.20;3.30;;;;;;;27.11;37.16;99097.83;137452;1273;22263;-84
2023/08/24 09:10:19;;;;;;;4.30;2.20;;;;;;;27.06;37.79;99100.42;137441;1273;22205;-84
2023/08/24 09:13:22;;;;;;;3.10;2.50;;;;;;;27.05;39.01;99100.60;137412;1266;21907;-85
2023/08/24 09:16:24;;;;;;;8.10;2.60;;;;;;;27.10;38.99;99100.22;137556;1273;22661;-85
2023/08/24 09:19:42;;;;;;;2.60;2.00;;;;;;;27.22;38.76;99104.41;137021;1273;22897;-85
2023/08/24 09:22:45;;;;;;;6.40;2.30;;;;;;;27.31;38.76;99102.66;136744;1278;22569;-84
2023/08/24 09:25:48;;;;;;;9.00;2.50;;;;;;;27.21;34.20;99091.27;136845;1277;23127;-84
2023/08/24 09:28:59;;;;;;;9.10;2.80;;;;;;;26.98;36.32;99089.54;136967;1278;22313;-84
2023/08/24 09:32:02;;;;;;;11.30;3.20;;;;;;;27.24;36.25;99090.54;136945;1278;22534;-84
2023/08/24 09:35:05;;;;;;;9.20;2.60;;;;;;;27.62;36.27;99078.34;136987;1277;22085;-84
2023/08/24 09:38:08;;;;;;;4.00;2.60;;;;;;;27.88;37.30;99079.83;136975;1277;22646;-84
2023/08/24 09:41:11;;;;;;;24.90;4.20;;;;;;;28.04;37.04;99083.77;137162;1278;22572;-85
2023/08/24 09:44:16;;;;;;;7.90;2.50;;;;;;;28.22;36.86;99080.98;137117;1274;23875;-86
2023/08/24 09:47:18;;;;;;;19.00;3.40;;;;;;;28.17;36.06;99083.94;137230;1273;22276;-82
2023/08/24 09:50:21;;;;;;;239.90;18.20;;;;;;;28.17;37.17;99081.41;137417;1273;22186;-84
2023/08/24 09:53:25;;;;;;;19.60;3.40;;;;;;;28.50;37.15;99075.43;137215;1273;22010;-84
2023/08/24 09:56:27;;;;;;;4.50;2.60;;;;;;;28.75;37.35;99074.22;137215;1273;22873;-83
2023/08/24 09:59:30;;;;;;;10.30;2.50;;;;;;;28.75;36.54;99075.45;137266;1273;22187;-83
2023/08/24 10:02:35;;;;;;;3.30;1.90;;;;;;;28.81;37.80;99070.98;137400;1273;22389;-82
2023/08/24 10:05:38;;;;;;;42.20;5.10;;;;;;;29.08;37.14;99070.27;137150;1273;22964;-84
2023/08/24 10:08:46;;;;;;;5.50;2.50;;;;;;;29.36;36.65;99067.85;137424;1274;22224;-83
2023/08/24 10:11:49;;;;;;;6.90;2.40;;;;;;;29.40;36.33;99064.56;137325;1273;22253;-83
2023/08/24 10:14:51;;;;;;;14.30;2.70;;;;;;;29.38;36.31;99064.52;137512;1273;22826;-83
2023/08/24 10:17:54;;;;;;;5.30;2.30;;;;;;;29.38;35.46;99065.41;137455;1273;21946;-84
2023/08/24 10:20:57;;;;;;;3.70;2.30;;;;;;;29.35;35.74;99067.23;137325;1273;22392;-84
2023/08/24 10:24:02;;;;;;;2.70;2.20;;;;;;;29.47;35.88;99071.54;137465;1273;22691;-84
2023/08/24 10:27:05;;;;;;;4.40;2.20;;;;;;;29.46;34.97;99075.53;137502;1273;22244;-85
2023/08/24 10:30:07;;;;;;;3.10;2.30;;;;;;;29.33;35.22;99072.90;137373;1268;22966;-83
2023/08/24 10:33:11;;;;;;;198.70;19.60;;;;;;;29.31;35.33;99068.00;137303;1273;22319;-85
2023/08/24 10:36:14;;;;;;;7.90;2.40;;;;;;;29.38;35.55;99067.17;137409;1263;22234;-84
2023/08/24 10:39:17;;;;;;;4.50;2.30;;;;;;;29.56;35.14;99061.82;137500;1273;22286;-84
2023/08/24 10:42:20;;;;;;;7.40;2.20;;;;;;;29.81;35.02;99056.67;137400;1273;22205;-84
2023/08/24 10:45:23;;;;;;;6.20;2.40;;;;;;;30.00;35.73;99056.02;137336;1273;22531;-84
2023/08/24 10:48:30;;;;;;;6.40;2.20;;;;;;;30.23;34.87;99053.78;137468;1263;22282;-84
2023/08/24 10:51:32;;;;;;;5.30;2.60;;;;;;;30.40;34.50;99053.77;137438;1273;22296;-84
2023/08/24 10:54:35;;;;;;;4.80;2.50;;;;;;;30.41;34.06;99052.08;137486;1273;22289;-84
2023/08/24 10:57:38;;;;;;;5.20;2.20;;;;;;;30.23;34.06;99055.40;137524;1273;22181;-84
2023/08/24 11:00:40;;;;;;;3.60;2.40;;;;;;;30.14;34.84;99055.50;137522;1273;22068;-84
2023/08/24 11:03:46;;;;;;;3.70;3.00;;;;;;;30.30;34.03;99055.29;137459;1273;22247;-85
2023/08/24 11:06:49;;;;;;;4.00;2.60;;;;;;;30.14;33.81;99046.86;137409;1273;22186;-84
2023/08/24 11:09:52;;;;;;;3.00;2.50;;;;;;;30.09;33.76;99050.22;137413;1263;22181;-85
2023/08/24 11:12:57;;;;;;;5.90;3.10;;;;;;;30.25;34.22;99049.73;137354;1274;22230;-85
2023/08/24 11:16:05;;;;;;;4.60;2.80;;;;;;;30.38;33.78;99048.84;137404;1273;22301;-85
2023/08/24 11:19:08;;;;;;;6.30;2.60;;;;;;;30.46;33.31;99048.19;137403;1273;22208;-81
2023/08/24 11:22:10;;;;;;;5.60;2.60;;;;;;;30.32;33.27;99042.42;137451;1273;22668;-85
2023/08/24 11:25:14;;;;;;;5.20;2.90;;;;;;;30.64;33.94;99034.45;137356;1273;22637;-86
2023/08/24 11:28:16;;;;;;;;;;;;;;;30.89;33.17;99035.80;137488;1273;22498;-85
2023/08/24 11:31:21;;;;;;;4.70;2.90;;;;;;;30.53;32.95;99035.02;136960;1273;22537;-84
2023/08/24 11:34:23;;;;;;;22.40;4.50;;;;;;;30.43;33.46;99026.67;136943;1273;22307;-84
2023/08/24 11:37:26;;;;;;;5.10;2.50;;;;;;;30.69;33.29;99017.75;137460;1273;22268;-86
2023/08/24 11:40:29;;;;;;;8.10;2.80;;;;;;;30.89;32.71;99017.67;137107;1274;22563;-84
2023/08/24 11:43:32;;;;;;;2.90;2.50;;;;;;;30.77;32.87;99014.38;137292;1273;22247;-84
2023/08/24 11:46:38;;;;;;;4.80;3.20;;;;;;;30.60;32.93;99012.25;137461;1273;22221;-84
2023/08/24 11:49:41;;;;;;;4.20;2.70;;;;;;;30.87;32.47;99008.80;137478;1272;22093;-83
2023/08/24 11:52:44;;;;;;;6.10;2.70;;;;;;;31.13;31.58;98999.07;137534;1273;22880;-84
2023/08/24 11:55:47;;;;;;;3.40;2.70;;;;;;;31.41;31.39;99000.77;137496;1273;22196;-82
2023/08/24 11:58:50;;;;;;;4.40;2.60;;;;;;;31.48;31.35;98994.30;137537;1273;22268;-85
2023/08/24 12:01:53;;;;;;;3.20;2.50;;;;;;;31.51;31.63;98989.75;137149;1268;22221;-85
2023/08/24 12:04:56;;;;;;;4.40;2.80;;;;;;;31.36;31.94;98995.57;137437;1274;22246;-87
2023/08/24 12:07:58;;;;;;;3.90;2.40;;;;;;;31.11;31.84;98991.36;137430;1269;22144;-84
2023/08/24 12:11:01;;;;;;;3.50;2.60;;;;;;;31.25;32.39;98994.52;137439;1273;22787;-80
2023/08/24 12:14:09;;;;;;;3.90;2.70;;;;;;;31.27;32.06;98991.53;137486;1273;22676;-84
2023/08/24 12:17:17;;;;;;;2.50;2.40;;;;;;;31.06;32.18;98986.62;137456;1264;22358;-85
2023/08/24 12:20:30;;;;;;;6.30;3.10;;;;;;;30.80;32.17;98987.70;137455;1273;22785;-83
2023/08/24 12:23:47;;;;;;;4.80;2.90;;;;;;;30.49;32.65;98986.94;137387;1263;22146;-82
2023/08/24 12:26:59;;;;;;;5.10;2.50;;;;;;;30.64;32.30;98979.45;137439;1273;22430;-86
2023/08/24 12:30:01;;;;;;;3.50;2.60;;;;;;;30.95;31.95;98979.30;137523;1272;22409;-83
2023/08/24 12:33:05;;;;;;;3.50;2.40;;;;;;;31.10;31.38;98985.27;137540;1273;22338;-84
2023/08/24 12:36:08;;;;;;;2.70;2.50;;;;;;;31.08;31.16;98978.21;137177;1270;22235;-85
2023/08/24 12:39:12;;;;;;;2.70;2.20;;;;;;;31.23;31.25;98975.80;137564;1273;22087;-84
2023/08/24 12:42:15;;;;;;;3.70;2.60;;;;;;;31.16;31.20;98974.29;137594;1273;22202;-85
2023/08/24 12:45:17;;;;;;;5.30;2.80;;;;;;;31.04;31.77;98970.25;137578;1273;22233;-85
2023/08/24 12:48:20;;;;;;;3.80;2.30;;;;;;;30.97;32.68;98965.48;137575;1274;22228;-85
2023/08/24 12:51:24;;;;;;;11.90;3.00;;;;;;;31.28;32.22;98960.13;137463;1273;22705;-85
2023/08/24 12:54:26;;;;;;;4.90;2.60;;;;;;;31.57;32.02;98958.43;137524;1273;22362;-84
2023/08/24 12:57:30;;;;;;;474.30;42.20;;;;;;;31.60;31.18;98954.08;137456;1274;22644;-85
2023/08/24 13:00:33;;;;;;;7.00;2.60;;;;;;;31.45;31.84;98959.14;137577;1274;22328;-84
2023/08/24 13:03:36;;;;;;;4.10;3.20;;;;;;;31.38;32.03;98957.79;137506;1273;22211;-86
2023/08/24 13:06:38;;;;;;;3.00;2.50;;;;;;;31.35;32.23;98950.98;137610;1273;22240;-86
2023/08/24 13:09:44;;;;;;;14.00;3.10;;;;;;;31.36;31.78;98947.91;137481;1273;22200;-84
2023/08/24 13:12:46;;;;;;;15.80;3.50;;;;;;;31.38;31.50;98945.42;137506;1273;22214;-85
